Nearby METAR Reports

KLWM - Lawrence,MA, USA
Distance from station: NE 12mi, 19km
Updated: Wed, 12-Aug-2020 6:54pm EDT
Clear
Clear
 Wind from WNW
Wind: WNW 7 mph , 11 km/h
Temperature: 90°F , 32°C
Heat Index: 91°F , 33°C
Dew Point: 63°F , 17°C
Humidity: 41%
Barometer: 30.01 inHg , 1016.3 hPa
Clouds: Clear
Visibility: 10 miles , 16 km
2020/08/12 22:54 KLWM 122254Z 30006KT 10SM CLR 32/17 A3001 RMK AO2 SLP160 T03170167
KBED - Bedford,MA, USA
Distance from station: SSE 12mi, 19km
Updated: Wed, 12-Aug-2020 6:51pm EDT
Few Clouds
Few Clouds
 Wind from WNW
Wind: WNW 7 mph , 11 km/h
Temperature: 90°F , 32°C
Heat Index: 92°F , 33°C
Dew Point: 64°F , 18°C
Humidity: 43%
Barometer: 29.99 inHg , 1015.6 hPa
Clouds: Few Clouds
Visibility: 10 miles , 16 km
Cloud details: Few Clouds 6500 ft
2020/08/12 22:51 KBED 122251Z 30006KT 10SM FEW065 32/18 A2999 RMK AO2 SLP164 T03170178

Metar display script from Saratoga-Weather.org